Kezdőlap
METAR-TAF:

METAR-TAF

Repülőterek :

Tbiliszi nemzetközi repülőtér

Tbiliszi, Grúzia

földrajzi szélesség: 41-40-09N, földrajzi hosszúság: 044-57-17E, magasság: 495 m

Jelenlegi meteorológiai megfigyelések

A jelentés 23 perccel ezelõtt készült, 02:30 UTC
Észak-északnyugati szél 10 kt
Hőmérséklet 8°C
Páratartalom 76%
Légköri nyomás 1029 hPa
Látótávolság 10 km, vagy több
felhőtlen 1500 m magasságban, és nincs gomolyfelhõ

METAR: UGTB 250230Z 34010KT CAVOK 08/04 Q1029 NOSIG

Idő: 06:53 (02:53 UTC)

Előrejelzés

A jelentés 3 órával és 53 perccel ezelõtt készült, 23:00 UTC
Az előrejelzés 25-én 00 óra UTC és 25-én 24 óra UTC között érvényes
Északnyugati szél 11 kt
Látótávolság 10 km, vagy több
Szórványos felhőzet 5000 lábon
25-én 10 óra UTC és 25-én 13 óra UTC között fokozatosan kialakuló
Különbözõ irányokból fújó szél 2 kt

TAF: UGTB 242300Z 2500/2524 32011KT 9999 SCT050 TX18/2512Z TN07/2502Z BECMG 2510/2513 VRB02KT

Meteorológiai megfigyelések és előrejelzések több, mint 4000 repülőtéren (METAR és TAF jelentéseket).

A térképen piros és sárga pontok jelzik az elérhető meteorológiai állomásokat.

Mozgassa az egeret a pont fölött, hogy megjelenjen az állomás neve.

Azután kattintson az időjárási megfigyelések és előrejelzések megtekintéséhez.

A térkép megváltoztatása: kattintson a fekete keresztel jelölt zöld gombra ráközelítéshez, a vonallal jelölt zöld gombra távolításhoz, vagy a zöld nyilakra a szomszédos térképek eléréséhez.


METAR-TAF: